CheckWX is a tool to help pilots better visualize weather data.  It is not intended as a substitute for an official pre-flight weather briefing.

19:39:35 UTC

KTMB TAF
Miami Executive Airport
Miami, Florida, USA
KTMB 121750Z 1218/1318 VRB03KT P6SM SCT045 FM130000 VRB03KT P6SM FEW040 FM131200 01008KT P6SM SCT025 SCT045

Nov-12@
18:00 UTC

Nov-12 @ 18:00 UTC

Nov-13@
00:00 UTC

Nov-13 @ 00:00 UTC

KTMB 121750Z 1218/1318 VRB03KT P6SM SCT045
Wind
  • Variable at 3 KTS
Cloud Levels
  • Scattered at 4,500' AGL

Nov-13@
00:00 UTC

Nov-13 @ 00:00 UTC

Nov-13@
12:00 UTC

Nov-13 @ 12:00 UTC

FM130000 VRB03KT P6SM FEW040

From

From Standard forecast or significant change

Wind
  • Variable at 3 KTS
Cloud Levels
  • Few at 4,000' AGL

Nov-13@
12:00 UTC

Nov-13 @ 12:00 UTC

Nov-13@
18:00 UTC

Nov-13 @ 18:00 UTC

FM131200 01008KT P6SM SCT025 SCT045

From

From Standard forecast or significant change

Wind
  • 010° at 8 KTS
Cloud Levels
  • Scattered at 2,500' AGL
  • Scattered at 4,500' AGL